Cherokee — SVCN2 — position and weather

sailwx.info

Track history (hours):
 
Tides and Currents Weather Stations Pressure Air Temp Water Temp Dewpoint Dewpoint Depression Visibility Wind Speed Wind Dir Waves Ship Positions

Cherokee

Last reported at 2018-Jun-09 19:21 UTC. Time now 2018-Jun-20 20:39 UTC.
Position N 27°29' W 015°11'.
Warning: this ship's position is 11 days out of date.

Length 274 m; draft 9.3 m.

Type: Tanker. MMSI: 241473000.

Date/timePositionNaut miles runAvg speedWind from/ knotsBaromVisibWave heightAir tempDewpointWater temp
2018-Jun-09 19:21N 27°29' W 015°11'513.7
2018-Jun-09 18:57N 27°34' W 015°10'613.7
2018-Jun-09 18:30N 27°40' W 015°09'713.3
2018-Jun-09 18:00N 27°47' W 015°08'713.1
2018-Jun-09 17:30N 27°53' W 015°06'713.2
2018-Jun-09 17:00N 27°60' W 015°04'713.2
2018-Jun-09 16:30N 28°06' W 015°01'713.3
2018-Jun-09 16:00N 28°12' W 014°59'1413.4
2018-Jun-09 15:00N 28°25' W 014°55'713.5
2018-Jun-09 14:30N 28°32' W 014°54'612.4
2018-Jun-09 14:00N 28°37' W 014°51'713.3
2018-Jun-09 13:30N 28°44' W 014°49'713.3
2018-Jun-09 13:00N 28°50' W 014°47'713.3
2018-Jun-09 12:29N 28°57' W 014°46'913.0
2018-Jun-09 11:46N 29°06' W 014°43'513.0
2018-Jun-09 11:23N 29°11' W 014°42'2012.9
2018-Jun-09 09:52N 29°30' W 014°37'612.9
2018-Jun-09 09:25N 29°36' W 014°36'513.0
2018-Jun-09 08:59N 29°41' W 014°34'713.3
2018-Jun-09 08:29N 29°48' W 014°33'  
2018-Jun-05 02:49N 51°18' W 005°36'413.1
2018-Jun-05 02:29N 51°23' W 005°35'4 6.7
2018-Jun-05 01:52N 51°27' W 005°34'2 1.9
2018-Jun-05 00:52N 51°27' W 005°31'1 2.6
2018-Jun-05 00:30N 51°27' W 005°30'3 5.6
2018-Jun-05 00:00N 51°28' W 005°25'4 7.7
2018-Jun-04 23:30N 51°31' W 005°22'611.6
2018-Jun-04 23:00N 51°36' W 005°16'510.5
2018-Jun-04 22:30N 51°40' W 005°11'5 9.2
2018-Jun-04 22:00N 51°42' W 005°04'1 2.2
2018-Jun-04 21:29N 51°42' W 005°03'0 0.0
2018-Jun-04 20:59N 51°42' W 005°03'0 0.0
2018-Jun-04 20:29N 51°42' W 005°03'0 0.0
2018-Jun-04 19:59N 51°42' W 005°03'0 0.0
2018-Jun-04 19:29N 51°42' W 005°03'0 0.0
2018-Jun-04 18:59N 51°42' W 005°03'0 0.0
2018-Jun-04 18:29N 51°42' W 005°03'0 0.0
2018-Jun-04 17:59N 51°42' W 005°03'0 0.0
2018-Jun-04 17:29N 51°42' W 005°03'0 0.0
2018-Jun-04 16:56N 51°42' W 005°03'0 0.0
2018-Jun-04 16:29N 51°42' W 005°03'0 0.0
2018-Jun-04 15:56N 51°42' W 005°03'0 0.0
2018-Jun-04 15:29N 51°42' W 005°03'0 0.0
2018-Jun-04 14:59N 51°42' W 005°03'0 0.0
2018-Jun-04 14:29N 51°42' W 005°03'0 0.0
2018-Jun-04 13:59N 51°42' W 005°03'0 0.0
2018-Jun-04 13:29N 51°42' W 005°03'0 0.0
2018-Jun-04 12:59N 51°42' W 005°03'0 0.0
2018-Jun-04 12:29N 51°42' W 005°03'0 0.0
2018-Jun-04 11:56N 51°42' W 005°03'0 0.0
2018-Jun-04 11:29N 51°42' W 005°03'0 0.0
2018-Jun-04 10:59N 51°42' W 005°03'0 0.0
2018-Jun-04 10:29N 51°42' W 005°03'0 0.0
2018-Jun-04 09:59N 51°42' W 005°03'0 0.0
2018-Jun-04 09:29N 51°42' W 005°03'0 0.0
2018-Jun-04 08:59N 51°42' W 005°03'0 0.0
2018-Jun-04 08:29N 51°42' W 005°03'0 0.0
2018-Jun-04 07:59N 51°42' W 005°03'0 0.0
2018-Jun-04 07:29N 51°42' W 005°03'0 0.0
2018-Jun-04 06:59N 51°42' W 005°03'0 0.0
2018-Jun-04 06:29N 51°42' W 005°03'0 0.0
2018-Jun-04 05:53N 51°42' W 005°03'0 0.0
2018-Jun-04 05:29N 51°42' W 005°03'0 0.0
2018-Jun-04 04:59N 51°42' W 005°03'0 0.0
2018-Jun-04 04:29N 51°42' W 005°03'0 0.0
2018-Jun-04 03:59N 51°42' W 005°03'0 0.0
2018-Jun-04 03:29N 51°42' W 005°03'0 0.0
2018-Jun-04 02:59N 51°42' W 005°03'0 0.0
2018-Jun-04 02:29N 51°42' W 005°03'0 0.0
2018-Jun-04 01:59N 51°42' W 005°03'0 0.0
2018-Jun-04 01:29N 51°42' W 005°03'0 0.0
2018-Jun-04 00:59N 51°42' W 005°03'0 0.0
2018-Jun-04 00:29N 51°42' W 005°03'0 0.0
2018-Jun-03 23:59N 51°42' W 005°03'0 0.0
2018-Jun-03 23:29N 51°42' W 005°03'0 0.0
2018-Jun-03 22:59N 51°42' W 005°03'0 0.0
2018-Jun-03 22:29N 51°42' W 005°03'0 0.0
2018-Jun-03 21:59N 51°42' W 005°03'0 0.0
2018-Jun-03 21:29N 51°42' W 005°03'0 0.0
2018-Jun-03 20:59N 51°42' W 005°03'0 0.0
2018-Jun-03 20:26N 51°42' W 005°03'0 0.0
2018-Jun-03 19:59N 51°42' W 005°03'0 0.0
2018-Jun-03 19:29N 51°42' W 005°03'0 0.0
2018-Jun-03 18:59N 51°42' W 005°03'0 0.0
2018-Jun-03 18:29N 51°42' W 005°03'0 0.0
2018-Jun-03 17:59N 51°42' W 005°03'0 0.0
2018-Jun-03 17:29N 51°42' W 005°03'0 0.0
2018-Jun-03 16:59N 51°42' W 005°03'0 0.0
2018-Jun-03 16:29N 51°42' W 005°03'0 0.0
2018-Jun-03 15:59N 51°42' W 005°03'0 0.0
2018-Jun-03 15:29N 51°42' W 005°03'0 0.0
2018-Jun-03 14:59N 51°42' W 005°03'0 0.0
2018-Jun-03 14:29N 51°42' W 005°03'0 0.0
2018-Jun-03 13:59N 51°42' W 005°03'0 0.0
2018-Jun-03 13:29N 51°42' W 005°03'0 0.0
2018-Jun-03 12:59N 51°42' W 005°03'0 0.0
2018-Jun-03 12:29N 51°42' W 005°03'0 0.0
2018-Jun-03 11:59N 51°42' W 005°03'0 0.0
2018-Jun-03 11:29N 51°42' W 005°03'0 0.0
2018-Jun-03 10:59N 51°42' W 005°03'0 0.0
2018-Jun-03 10:29N 51°42' W 005°03'0 0.0
2018-Jun-03 09:59N 51°42' W 005°03'0 0.0
2018-Jun-03 09:29N 51°42' W 005°03'0 0.0
2018-Jun-03 08:59N 51°42' W 005°03'0 0.0
2018-Jun-03 08:29N 51°42' W 005°03'0 0.0
2018-Jun-03 07:59N 51°42' W 005°03'0 0.0
2018-Jun-03 07:29N 51°42' W 005°03'0 0.0
2018-Jun-03 06:59N 51°42' W 005°03'0 0.0
2018-Jun-03 06:14N 51°42' W 005°03'0 0.0
2018-Jun-03 05:59N 51°42' W 005°03'0 0.0
2018-Jun-03 05:29N 51°42' W 005°03'0 0.0
2018-Jun-03 04:59N 51°42' W 005°03'0 0.0
2018-Jun-03 04:29N 51°42' W 005°03'0 0.0
2018-Jun-03 03:59N 51°42' W 005°03'0 0.0
2018-Jun-03 03:26N 51°42' W 005°03'0 0.0
2018-Jun-03 02:59N 51°42' W 005°03'0 0.0
2018-Jun-03 02:29N 51°42' W 005°03'0 0.0
2018-Jun-03 01:59N 51°42' W 005°03'0 0.0
2018-Jun-03 01:29N 51°42' W 005°03'0 0.0
2018-Jun-03 00:59N 51°42' W 005°03'0 0.0
2018-Jun-03 00:26N 51°42' W 005°03'0 0.0
2018-Jun-02 23:59N 51°42' W 005°03'0 0.0
2018-Jun-02 23:29N 51°42' W 005°03'0 0.0
2018-Jun-02 22:59N 51°42' W 005°03'0 0.0
2018-Jun-02 22:29N 51°42' W 005°03'0 0.0
2018-Jun-02 21:59N 51°42' W 005°03'0 0.0
2018-Jun-02 21:29N 51°42' W 005°03'0 0.0
2018-Jun-02 21:00N 51°42' W 005°03'0 0.2
2018-Jun-02 20:31N 51°42' W 005°03'3 5.3
2018-Jun-02 20:00N 51°42' W 005°07'4 7.8
2018-Jun-02 19:30N 51°39' W 005°11'4 7.3
2018-Jun-02 19:00N 51°36' W 005°14'4 7.7
2018-Jun-02 18:30N 51°32' W 005°17'5 9.2
2018-Jun-02 18:00N 51°28' W 005°19'611.0
2018-Jun-02 17:29N 51°23' W 005°23'1 2.8
2018-Jun-02 17:00N 51°22' W 005°24'1 1.0
2018-Jun-02 16:30N 51°22' W 005°25'1 0.8
2018-Jun-02 15:50N 51°22' W 005°26'0 0.6
2018-Jun-02 15:30N 51°22' W 005°26'0 0.6
2018-Jun-02 15:00N 51°22' W 005°27'0 0.5
2018-Jun-02 14:30N 51°22' W 005°27'0 0.1
2018-Jun-02 14:00N 51°22' W 005°27'0 0.4
2018-Jun-02 13:30N 51°23' W 005°27'1 0.8
2018-Jun-02 12:40N 51°23' W 005°26'2 1.1
2018-Jun-02 11:16N 51°23' W 005°23'1 2.2
2018-Jun-02 10:39N 51°23' W 005°22'2 4.3
2018-Jun-02 10:11N 51°26' W 005°21'1 8.0
2018-Jun-02 10:00N 51°27' W 005°22'3 5.8
2018-Jun-02 09:30N 51°30' W 005°21'1 1.7
2018-Jun-02 08:59N 51°29' W 005°20'1 1.7
2018-Jun-02 08:30N 51°29' W 005°19'1 1.4
2018-Jun-02 08:00N 51°28' W 005°19'1 1.1
2018-Jun-02 07:30N 51°28' W 005°19'0 0.9
2018-Jun-02 07:00N 51°27' W 005°19'0 0.7
2018-Jun-02 06:30N 51°27' W 005°19'0 0.7
2018-Jun-02 06:00N 51°27' W 005°19'0 0.7
2018-Jun-02 05:30N 51°26' W 005°20'0 0.9
2018-Jun-02 05:00N 51°26' W 005°20'0 0.8
2018-Jun-02 04:30N 51°26' W 005°21'0 0.8
2018-Jun-02 04:00N 51°26' W 005°22'0 0.7
2018-Jun-02 03:30N 51°26' W 005°22'0 0.5
2018-Jun-02 03:00N 51°26' W 005°23'0 0.4
2018-Jun-02 02:30N 51°26' W 005°23'0 0.1
2018-Jun-02 02:00N 51°26' W 005°23'0 0.4
2018-Jun-02 01:30N 51°26' W 005°22'0 0.7
2018-Jun-02 01:00N 51°26' W 005°22'0 1.0
2018-Jun-02 00:30N 51°26' W 005°21'1 1.2
2018-Jun-02 00:00N 51°26' W 005°20'1 1.3
2018-Jun-01 23:30N 51°25' W 005°19'1 1.4
2018-Jun-01 23:00N 51°25' W 005°18'1 1.4
2018-Jun-01 22:30N 51°25' W 005°17'1 1.3
2018-Jun-01 22:00N 51°25' W 005°16'1 1.1
2018-Jun-01 21:30N 51°25' W 005°15'0 0.9
2018-Jun-01 21:00N 51°24' W 005°15'0 0.7
2018-Jun-01 20:30N 51°24' W 005°14'0 0.5
2018-Jun-01 20:00N 51°24' W 005°14'0 0.5
2018-Jun-01 19:30N 51°24' W 005°14'0 0.8
2018-Jun-01 19:00N 51°23' W 005°15'1 1.0
2018-Jun-01 18:30N 51°23' W 005°16'1 1.2
2018-Jun-01 18:00N 51°23' W 005°17'1 1.4
2018-Jun-01 17:30N 51°23' W 005°18'1 1.4
2018-Jun-01 17:00N 51°23' W 005°19'1 1.4
2018-Jun-01 16:27N 51°23' W 005°20'1 1.3
2018-Jun-01 16:00N 51°23' W 005°21'1 1.2
2018-Jun-01 15:30N 51°23' W 005°22'0 0.9
2018-Jun-01 14:59N 51°23' W 005°23'0 0.8
2018-Jun-01 14:30N 51°24' W 005°23'0 0.6
2018-Jun-01 14:00N 51°24' W 005°23'0 0.4
2018-Jun-01 13:30N 51°24' W 005°23'0 0.5
2018-Jun-01 13:00N 51°24' W 005°23'0 0.7
2018-Jun-01 12:30N 51°24' W 005°23'0 0.9
2018-Jun-01 12:00N 51°24' W 005°22'1 1.1
2018-Jun-01 11:30N 51°24' W 005°21'1 1.1
2018-Jun-01 11:00N 51°24' W 005°20'1 1.1
2018-Jun-01 10:30N 51°24' W 005°19'1 1.2
2018-Jun-01 10:00N 51°24' W 005°18'1 1.1
2018-Jun-01 09:30N 51°24' W 005°18'0 0.7
2018-Jun-01 09:00N 51°24' W 005°17'0 0.6
2018-Jun-01 08:30N 51°24' W 005°17'0 0.6
2018-Jun-01 08:00N 51°24' W 005°16'0 0.7
2018-Jun-01 07:30N 51°23' W 005°16'0 0.9
2018-Jun-01 07:00N 51°23' W 005°17'1 1.0
2018-Jun-01 06:30N 51°22' W 005°17'1 1.1
2018-Jun-01 06:00N 51°22' W 005°18'1 1.3
2018-Jun-01 05:30N 51°22' W 005°19'1 1.4
2018-Jun-01 05:00N 51°22' W 005°20'1 1.3
2018-Jun-01 04:30N 51°22' W 005°21'1 1.1
2018-Jun-01 04:00N 51°22' W 005°22'1 1.0
2018-Jun-01 03:30N 51°22' W 005°23'1 1.0
2018-Jun-01 03:00N 51°23' W 005°24'0 0.8
2018-Jun-01 02:29N 51°23' W 005°24'0 0.6
2018-Jun-01 02:00N 51°23' W 005°24'0 0.5
2018-Jun-01 01:30N 51°23' W 005°24'0 0.4
2018-Jun-01 01:00N 51°24' W 005°24'0 0.5
2018-Jun-01 00:30N 51°24' W 005°24'0 0.6
2018-Jun-01 00:00N 51°24' W 005°23'0 0.9
2018-May-31 23:30N 51°24' W 005°23'1 1.1
2018-May-31 23:00N 51°24' W 005°22'1 1.3
2018-May-31 22:29N 51°24' W 005°21'1 1.1
2018-May-31 22:00N 51°24' W 005°20'0 0.9
2018-May-31 21:30N 51°24' W 005°19'0 0.8
2018-May-31 21:00N 51°23' W 005°19'0 0.8
2018-May-31 20:30N 51°23' W 005°18'0 0.7
2018-May-31 20:00N 51°23' W 005°18'0 0.7
2018-May-31 19:30N 51°23' W 005°18'0 0.7
2018-May-31 19:00N 51°22' W 005°18'0 0.8
2018-May-31 18:28N 51°22' W 005°19'1 1.0
2018-May-31 17:56N 51°22' W 005°19'1 1.2
2018-May-31 17:24N 51°21' W 005°20'1 1.2
2018-May-31 16:56N 51°21' W 005°21'4 1.0
2018-May-31 13:02N 51°23' W 005°27'0 1.3
2018-May-31 12:59N 51°23' W 005°27'1 1.8
2018-May-31 12:30N 51°24' W 005°28'2 3.2
2018-May-31 12:00N 51°25' W 005°30'5 7.5
2018-May-31 11:23N 51°28' W 005°35'4 9.4
2018-May-31 10:56N 51°31' W 005°40'3 8.0
2018-May-31 10:30N 51°33' W 005°44'1 1.1
2018-May-31 10:00N 51°34' W 005°44'1 1.9
2018-May-31 09:30N 51°33' W 005°43'1 1.9
2018-May-31 09:00N 51°32' W 005°42'1 1.9
2018-May-31 08:29N 51°31' W 005°42'1 1.8
2018-May-31 08:00N 51°30' W 005°41'1 2.7
2018-May-31 07:30N 51°29' W 005°40'2 4.8
2018-May-31 07:00N 51°27' W 005°38'5 9.7
2018-May-31 06:30N 51°27' W 005°30'5 9.2
2018-May-31 06:00N 51°27' W 005°23'1 2.8
2018-May-31 05:28N 51°27' W 005°20'2 1.3
2018-May-31 04:15N 51°27' W 005°23'0 1.5
2018-May-31 03:59N 51°27' W 005°23'1 1.5
2018-May-31 03:23N 51°28' W 005°25'1 1.5
2018-May-31 03:00N 51°28' W 005°25'1 1.4
2018-May-31 02:30N 51°28' W 005°26'1 1.4
2018-May-31 02:00N 51°29' W 005°27'1 1.2
2018-May-31 01:27N 51°29' W 005°28'0 1.0
2018-May-31 01:00N 51°30' W 005°28'0 0.7
2018-May-31 00:30N 51°30' W 005°29'0 0.4
2018-May-31 00:00N 51°30' W 005°29'0 0.3
2018-May-30 23:30N 51°30' W 005°28'0 0.5
2018-May-30 23:00N 51°30' W 005°28'0 0.6
2018-May-30 22:30N 51°30' W 005°28'1 2.1
2018-May-30 22:00N 51°31' W 005°29'3 6.4
2018-May-30 21:30N 51°33' W 005°32'4 7.4
2018-May-30 21:00N 51°36' W 005°36'0 0.8
2018-May-30 20:30N 51°36' W 005°36'1 3.0
2018-May-30 20:00N 51°35' W 005°35'1 2.7
2018-May-30 19:30N 51°35' W 005°33'  
Track history (hours):
 
Tides and Currents Weather Stations Pressure Air Temp Water Temp Dewpoint Dewpoint Depression Visibility Wind Speed Wind Dir Waves Ship Positions

Cherokee

Last reported at 2018-Jun-09 19:21 UTC. Time now 2018-Jun-20 20:39 UTC.
Position N 27°29' W 015°11'.
Warning: this ship's position is 11 days out of date.

Length 274 m; draft 9.3 m.

Type: Tanker. MMSI: 241473000.

Date/timePositionNaut miles runAvg speedWind from/ knotsBaromVisibWave heightAir tempDewpointWater temp
2018-Jun-09 19:21N 27°29' W 015°11'513.7
2018-Jun-09 18:57N 27°34' W 015°10'613.7
2018-Jun-09 18:30N 27°40' W 015°09'713.3
2018-Jun-09 18:00N 27°47' W 015°08'713.1
2018-Jun-09 17:30N 27°53' W 015°06'713.2
2018-Jun-09 17:00N 27°60' W 015°04'713.2
2018-Jun-09 16:30N 28°06' W 015°01'713.3
2018-Jun-09 16:00N 28°12' W 014°59'1413.4
2018-Jun-09 15:00N 28°25' W 014°55'713.5
2018-Jun-09 14:30N 28°32' W 014°54'612.4
2018-Jun-09 14:00N 28°37' W 014°51'713.3
2018-Jun-09 13:30N 28°44' W 014°49'713.3
2018-Jun-09 13:00N 28°50' W 014°47'713.3
2018-Jun-09 12:29N 28°57' W 014°46'913.0
2018-Jun-09 11:46N 29°06' W 014°43'513.0
2018-Jun-09 11:23N 29°11' W 014°42'2012.9
2018-Jun-09 09:52N 29°30' W 014°37'612.9
2018-Jun-09 09:25N 29°36' W 014°36'513.0
2018-Jun-09 08:59N 29°41' W 014°34'713.3
2018-Jun-09 08:29N 29°48' W 014°33'  
2018-Jun-05 02:49N 51°18' W 005°36'413.1
2018-Jun-05 02:29N 51°23' W 005°35'4 6.7
2018-Jun-05 01:52N 51°27' W 005°34'2 1.9
2018-Jun-05 00:52N 51°27' W 005°31'1 2.6
2018-Jun-05 00:30N 51°27' W 005°30'3 5.6
2018-Jun-05 00:00N 51°28' W 005°25'4 7.7
2018-Jun-04 23:30N 51°31' W 005°22'611.6
2018-Jun-04 23:00N 51°36' W 005°16'510.5
2018-Jun-04 22:30N 51°40' W 005°11'5 9.2
2018-Jun-04 22:00N 51°42' W 005°04'1 2.2
2018-Jun-04 21:29N 51°42' W 005°03'0 0.0
2018-Jun-04 20:59N 51°42' W 005°03'0 0.0
2018-Jun-04 20:29N 51°42' W 005°03'0 0.0
2018-Jun-04 19:59N 51°42' W 005°03'0 0.0
2018-Jun-04 19:29N 51°42' W 005°03'0 0.0
2018-Jun-04 18:59N 51°42' W 005°03'0 0.0
2018-Jun-04 18:29N 51°42' W 005°03'0 0.0
2018-Jun-04 17:59N 51°42' W 005°03'0 0.0
2018-Jun-04 17:29N 51°42' W 005°03'0 0.0
2018-Jun-04 16:56N 51°42' W 005°03'0 0.0
2018-Jun-04 16:29N 51°42' W 005°03'0 0.0
2018-Jun-04 15:56N 51°42' W 005°03'0 0.0
2018-Jun-04 15:29N 51°42' W 005°03'0 0.0
2018-Jun-04 14:59N 51°42' W 005°03'0 0.0
2018-Jun-04 14:29N 51°42' W 005°03'0 0.0
2018-Jun-04 13:59N 51°42' W 005°03'0 0.0
2018-Jun-04 13:29N 51°42' W 005°03'0 0.0
2018-Jun-04 12:59N 51°42' W 005°03'0 0.0
2018-Jun-04 12:29N 51°42' W 005°03'0 0.0
2018-Jun-04 11:56N 51°42' W 005°03'0 0.0
2018-Jun-04 11:29N 51°42' W 005°03'0 0.0
2018-Jun-04 10:59N 51°42' W 005°03'0 0.0
2018-Jun-04 10:29N 51°42' W 005°03'0 0.0
2018-Jun-04 09:59N 51°42' W 005°03'0 0.0
2018-Jun-04 09:29N 51°42' W 005°03'0 0.0
2018-Jun-04 08:59N 51°42' W 005°03'0 0.0
2018-Jun-04 08:29N 51°42' W 005°03'0 0.0
2018-Jun-04 07:59N 51°42' W 005°03'0 0.0
2018-Jun-04 07:29N 51°42' W 005°03'0 0.0
2018-Jun-04 06:59N 51°42' W 005°03'0 0.0
2018-Jun-04 06:29N 51°42' W 005°03'0 0.0
2018-Jun-04 05:53N 51°42' W 005°03'0 0.0
2018-Jun-04 05:29N 51°42' W 005°03'0 0.0
2018-Jun-04 04:59N 51°42' W 005°03'0 0.0
2018-Jun-04 04:29N 51°42' W 005°03'0 0.0
2018-Jun-04 03:59N 51°42' W 005°03'0 0.0
2018-Jun-04 03:29N 51°42' W 005°03'0 0.0
2018-Jun-04 02:59N 51°42' W 005°03'0 0.0
2018-Jun-04 02:29N 51°42' W 005°03'0 0.0
2018-Jun-04 01:59N 51°42' W 005°03'0 0.0
2018-Jun-04 01:29N 51°42' W 005°03'0 0.0
2018-Jun-04 00:59N 51°42' W 005°03'0 0.0
2018-Jun-04 00:29N 51°42' W 005°03'0 0.0
2018-Jun-03 23:59N 51°42' W 005°03'0 0.0
2018-Jun-03 23:29N 51°42' W 005°03'0 0.0
2018-Jun-03 22:59N 51°42' W 005°03'0 0.0
2018-Jun-03 22:29N 51°42' W 005°03'0 0.0
2018-Jun-03 21:59N 51°42' W 005°03'0 0.0
2018-Jun-03 21:29N 51°42' W 005°03'0 0.0
2018-Jun-03 20:59N 51°42' W 005°03'0 0.0
2018-Jun-03 20:26N 51°42' W 005°03'0 0.0
2018-Jun-03 19:59N 51°42' W 005°03'0 0.0
2018-Jun-03 19:29N 51°42' W 005°03'0 0.0
2018-Jun-03 18:59N 51°42' W 005°03'0 0.0
2018-Jun-03 18:29N 51°42' W 005°03'0 0.0
2018-Jun-03 17:59N 51°42' W 005°03'0 0.0
2018-Jun-03 17:29N 51°42' W 005°03'0 0.0
2018-Jun-03 16:59N 51°42' W 005°03'0 0.0
2018-Jun-03 16:29N 51°42' W 005°03'0 0.0
2018-Jun-03 15:59N 51°42' W 005°03'0 0.0
2018-Jun-03 15:29N 51°42' W 005°03'0 0.0
2018-Jun-03 14:59N 51°42' W 005°03'0 0.0
2018-Jun-03 14:29N 51°42' W 005°03'0 0.0
2018-Jun-03 13:59N 51°42' W 005°03'0 0.0
2018-Jun-03 13:29N 51°42' W 005°03'0 0.0
2018-Jun-03 12:59N 51°42' W 005°03'0 0.0
2018-Jun-03 12:29N 51°42' W 005°03'0 0.0
2018-Jun-03 11:59N 51°42' W 005°03'0 0.0
2018-Jun-03 11:29N 51°42' W 005°03'0 0.0
2018-Jun-03 10:59N 51°42' W 005°03'0 0.0
2018-Jun-03 10:29N 51°42' W 005°03'0 0.0
2018-Jun-03 09:59N 51°42' W 005°03'0 0.0
2018-Jun-03 09:29N 51°42' W 005°03'0 0.0
2018-Jun-03 08:59N 51°42' W 005°03'0 0.0
2018-Jun-03 08:29N 51°42' W 005°03'0 0.0
2018-Jun-03 07:59N 51°42' W 005°03'0 0.0
2018-Jun-03 07:29N 51°42' W 005°03'0 0.0
2018-Jun-03 06:59N 51°42' W 005°03'0 0.0
2018-Jun-03 06:14N 51°42' W 005°03'0 0.0
2018-Jun-03 05:59N 51°42' W 005°03'0 0.0
2018-Jun-03 05:29N 51°42' W 005°03'0 0.0
2018-Jun-03 04:59N 51°42' W 005°03'0 0.0
2018-Jun-03 04:29N 51°42' W 005°03'0 0.0
2018-Jun-03 03:59N 51°42' W 005°03'0 0.0
2018-Jun-03 03:26N 51°42' W 005°03'0 0.0
2018-Jun-03 02:59N 51°42' W 005°03'0 0.0
2018-Jun-03 02:29N 51°42' W 005°03'0 0.0
2018-Jun-03 01:59N 51°42' W 005°03'0 0.0
2018-Jun-03 01:29N 51°42' W 005°03'0 0.0
2018-Jun-03 00:59N 51°42' W 005°03'0 0.0
2018-Jun-03 00:26N 51°42' W 005°03'0 0.0
2018-Jun-02 23:59N 51°42' W 005°03'0 0.0
2018-Jun-02 23:29N 51°42' W 005°03'0 0.0
2018-Jun-02 22:59N 51°42' W 005°03'0 0.0
2018-Jun-02 22:29N 51°42' W 005°03'0 0.0
2018-Jun-02 21:59N 51°42' W 005°03'0 0.0
2018-Jun-02 21:29N 51°42' W 005°03'0 0.0
2018-Jun-02 21:00N 51°42' W 005°03'0 0.2
2018-Jun-02 20:31N 51°42' W 005°03'3 5.3
2018-Jun-02 20:00N 51°42' W 005°07'4 7.8
2018-Jun-02 19:30N 51°39' W 005°11'4 7.3
2018-Jun-02 19:00N 51°36' W 005°14'4 7.7
2018-Jun-02 18:30N 51°32' W 005°17'5 9.2
2018-Jun-02 18:00N 51°28' W 005°19'611.0
2018-Jun-02 17:29N 51°23' W 005°23'1 2.8
2018-Jun-02 17:00N 51°22' W 005°24'1 1.0
2018-Jun-02 16:30N 51°22' W 005°25'1 0.8
2018-Jun-02 15:50N 51°22' W 005°26'0 0.6
2018-Jun-02 15:30N 51°22' W 005°26'0 0.6
2018-Jun-02 15:00N 51°22' W 005°27'0 0.5
2018-Jun-02 14:30N 51°22' W 005°27'0 0.1
2018-Jun-02 14:00N 51°22' W 005°27'0 0.4
2018-Jun-02 13:30N 51°23' W 005°27'1 0.8
2018-Jun-02 12:40N 51°23' W 005°26'2 1.1
2018-Jun-02 11:16N 51°23' W 005°23'1 2.2
2018-Jun-02 10:39N 51°23' W 005°22'2 4.3
2018-Jun-02 10:11N 51°26' W 005°21'1 8.0
2018-Jun-02 10:00N 51°27' W 005°22'3 5.8
2018-Jun-02 09:30N 51°30' W 005°21'1 1.7
2018-Jun-02 08:59N 51°29' W 005°20'1 1.7
2018-Jun-02 08:30N 51°29' W 005°19'1 1.4
2018-Jun-02 08:00N 51°28' W 005°19'1 1.1
2018-Jun-02 07:30N 51°28' W 005°19'0 0.9
2018-Jun-02 07:00N 51°27' W 005°19'0 0.7
2018-Jun-02 06:30N 51°27' W 005°19'0 0.7
2018-Jun-02 06:00N 51°27' W 005°19'0 0.7
2018-Jun-02 05:30N 51°26' W 005°20'0 0.9
2018-Jun-02 05:00N 51°26' W 005°20'0 0.8
2018-Jun-02 04:30N 51°26' W 005°21'0 0.8
2018-Jun-02 04:00N 51°26' W 005°22'0 0.7
2018-Jun-02 03:30N 51°26' W 005°22'0 0.5
2018-Jun-02 03:00N 51°26' W 005°23'0 0.4
2018-Jun-02 02:30N 51°26' W 005°23'0 0.1
2018-Jun-02 02:00N 51°26' W 005°23'0 0.4
2018-Jun-02 01:30N 51°26' W 005°22'0 0.7
2018-Jun-02 01:00N 51°26' W 005°22'0 1.0
2018-Jun-02 00:30N 51°26' W 005°21'1 1.2
2018-Jun-02 00:00N 51°26' W 005°20'1 1.3
2018-Jun-01 23:30N 51°25' W 005°19'1 1.4
2018-Jun-01 23:00N 51°25' W 005°18'1 1.4
2018-Jun-01 22:30N 51°25' W 005°17'1 1.3
2018-Jun-01 22:00N 51°25' W 005°16'1 1.1
2018-Jun-01 21:30N 51°25' W 005°15'0 0.9
2018-Jun-01 21:00N 51°24' W 005°15'0 0.7
2018-Jun-01 20:30N 51°24' W 005°14'0 0.5
2018-Jun-01 20:00N 51°24' W 005°14'0 0.5
2018-Jun-01 19:30N 51°24' W 005°14'0 0.8
2018-Jun-01 19:00N 51°23' W 005°15'1 1.0
2018-Jun-01 18:30N 51°23' W 005°16'1 1.2
2018-Jun-01 18:00N 51°23' W 005°17'1 1.4
2018-Jun-01 17:30N 51°23' W 005°18'1 1.4
2018-Jun-01 17:00N 51°23' W 005°19'1 1.4
2018-Jun-01 16:27N 51°23' W 005°20'1 1.3
2018-Jun-01 16:00N 51°23' W 005°21'1 1.2
2018-Jun-01 15:30N 51°23' W 005°22'0 0.9
2018-Jun-01 14:59N 51°23' W 005°23'0 0.8
2018-Jun-01 14:30N 51°24' W 005°23'0 0.6
2018-Jun-01 14:00N 51°24' W 005°23'0 0.4
2018-Jun-01 13:30N 51°24' W 005°23'0 0.5
2018-Jun-01 13:00N 51°24' W 005°23'0 0.7
2018-Jun-01 12:30N 51°24' W 005°23'0 0.9
2018-Jun-01 12:00N 51°24' W 005°22'1 1.1
2018-Jun-01 11:30N 51°24' W 005°21'1 1.1
2018-Jun-01 11:00N 51°24' W 005°20'1 1.1
2018-Jun-01 10:30N 51°24' W 005°19'1 1.2
2018-Jun-01 10:00N 51°24' W 005°18'1 1.1
2018-Jun-01 09:30N 51°24' W 005°18'0 0.7
2018-Jun-01 09:00N 51°24' W 005°17'0 0.6
2018-Jun-01 08:30N 51°24' W 005°17'0 0.6
2018-Jun-01 08:00N 51°24' W 005°16'0 0.7
2018-Jun-01 07:30N 51°23' W 005°16'0 0.9
2018-Jun-01 07:00N 51°23' W 005°17'1 1.0
2018-Jun-01 06:30N 51°22' W 005°17'1 1.1
2018-Jun-01 06:00N 51°22' W 005°18'1 1.3
2018-Jun-01 05:30N 51°22' W 005°19'1 1.4
2018-Jun-01 05:00N 51°22' W 005°20'1 1.3
2018-Jun-01 04:30N 51°22' W 005°21'1 1.1
2018-Jun-01 04:00N 51°22' W 005°22'1 1.0
2018-Jun-01 03:30N 51°22' W 005°23'1 1.0
2018-Jun-01 03:00N 51°23' W 005°24'0 0.8
2018-Jun-01 02:29N 51°23' W 005°24'0 0.6
2018-Jun-01 02:00N 51°23' W 005°24'0 0.5
2018-Jun-01 01:30N 51°23' W 005°24'0 0.4
2018-Jun-01 01:00N 51°24' W 005°24'0 0.5
2018-Jun-01 00:30N 51°24' W 005°24'0 0.6
2018-Jun-01 00:00N 51°24' W 005°23'0 0.9
2018-May-31 23:30N 51°24' W 005°23'1 1.1
2018-May-31 23:00N 51°24' W 005°22'1 1.3
2018-May-31 22:29N 51°24' W 005°21'1 1.1
2018-May-31 22:00N 51°24' W 005°20'0 0.9
2018-May-31 21:30N 51°24' W 005°19'0 0.8
2018-May-31 21:00N 51°23' W 005°19'0 0.8
2018-May-31 20:30N 51°23' W 005°18'0 0.7
2018-May-31 20:00N 51°23' W 005°18'0 0.7
2018-May-31 19:30N 51°23' W 005°18'0 0.7
2018-May-31 19:00N 51°22' W 005°18'0 0.8
2018-May-31 18:28N 51°22' W 005°19'1 1.0
2018-May-31 17:56N 51°22' W 005°19'1 1.2
2018-May-31 17:24N 51°21' W 005°20'1 1.2
2018-May-31 16:56N 51°21' W 005°21'4 1.0
2018-May-31 13:02N 51°23' W 005°27'0 1.3
2018-May-31 12:59N 51°23' W 005°27'1 1.8
2018-May-31 12:30N 51°24' W 005°28'2 3.2
2018-May-31 12:00N 51°25' W 005°30'5 7.5
2018-May-31 11:23N 51°28' W 005°35'4 9.4
2018-May-31 10:56N 51°31' W 005°40'3 8.0
2018-May-31 10:30N 51°33' W 005°44'1 1.1
2018-May-31 10:00N 51°34' W 005°44'1 1.9
2018-May-31 09:30N 51°33' W 005°43'1 1.9
2018-May-31 09:00N 51°32' W 005°42'1 1.9
2018-May-31 08:29N 51°31' W 005°42'1 1.8
2018-May-31 08:00N 51°30' W 005°41'1 2.7
2018-May-31 07:30N 51°29' W 005°40'2 4.8
2018-May-31 07:00N 51°27' W 005°38'5 9.7
2018-May-31 06:30N 51°27' W 005°30'5 9.2
2018-May-31 06:00N 51°27' W 005°23'1 2.8
2018-May-31 05:28N 51°27' W 005°20'2 1.3
2018-May-31 04:15N 51°27' W 005°23'0 1.5
2018-May-31 03:59N 51°27' W 005°23'1 1.5
2018-May-31 03:23N 51°28' W 005°25'1 1.5
2018-May-31 03:00N 51°28' W 005°25'1 1.4
2018-May-31 02:30N 51°28' W 005°26'1 1.4
2018-May-31 02:00N 51°29' W 005°27'1 1.2
2018-May-31 01:27N 51°29' W 005°28'0 1.0
2018-May-31 01:00N 51°30' W 005°28'0 0.7
2018-May-31 00:30N 51°30' W 005°29'0 0.4
2018-May-31 00:00N 51°30' W 005°29'0 0.3
2018-May-30 23:30N 51°30' W 005°28'0 0.5
2018-May-30 23:00N 51°30' W 005°28'0 0.6
2018-May-30 22:30N 51°30' W 005°28'1 2.1
2018-May-30 22:00N 51°31' W 005°29'3 6.4
2018-May-30 21:30N 51°33' W 005°32'4 7.4
2018-May-30 21:00N 51°36' W 005°36'0 0.8
2018-May-30 20:30N 51°36' W 005°36'1 3.0
2018-May-30 20:00N 51°35' W 005°35'1 2.7
2018-May-30 19:30N 51°35' W 005°33'  

Dump ship's entire track history